sensor_id;sensor_type;location;lat;lon;timestamp;pressure;altitude;pressure_sealevel;temperature;humidity
61055;BME280;46939;48.940;8.258;2022-11-20T00:01:58;99939.88;;;15.41;44.81
61055;BME280;46939;48.940;8.258;2022-11-20T00:04:27;99941.16;;;15.38;44.63
61055;BME280;46939;48.940;8.258;2022-11-20T00:06:55;99941.16;;;15.38;44.59
61055;BME280;46939;48.940;8.258;2022-11-20T00:09:26;99943.94;;;15.43;44.27
61055;BME280;46939;48.940;8.258;2022-11-20T00:11:54;99945.09;;;15.47;44.29
61055;BME280;46939;48.940;8.258;2022-11-20T00:14:23;99946.50;;;15.38;44.17
61055;BME280;46939;48.940;8.258;2022-11-20T00:16:51;99943.59;;;15.39;44.34
61055;BME280;46939;48.940;8.258;2022-11-20T00:19:19;99940.91;;;15.39;44.45
61055;BME280;46939;48.940;8.258;2022-11-20T00:21:48;99949.28;;;15.43;44.64
61055;BME280;46939;48.940;8.258;2022-11-20T00:24:19;99934.53;;;15.52;44.67
61055;BME280;46939;48.940;8.258;2022-11-20T00:26:50;99946.72;;;15.48;44.40
61055;BME280;46939;48.940;8.258;2022-11-20T00:29:18;99942.34;;;15.54;44.47
61055;BME280;46939;48.940;8.258;2022-11-20T00:31:46;99938.97;;;15.58;44.67
61055;BME280;46939;48.940;8.258;2022-11-20T00:34:15;99937.84;;;15.66;43.88
61055;BME280;46939;48.940;8.258;2022-11-20T00:36:43;99936.78;;;15.67;44.06
61055;BME280;46939;48.940;8.258;2022-11-20T00:39:11;99934.72;;;15.69;44.24
61055;BME280;46939;48.940;8.258;2022-11-20T00:41:40;99941.22;;;15.73;44.56
61055;BME280;46939;48.940;8.258;2022-11-20T00:44:11;99944.81;;;15.79;44.13
61055;BME280;46939;48.940;8.258;2022-11-20T00:46:39;99945.84;;;15.78;44.32
61055;BME280;46939;48.940;8.258;2022-11-20T00:49:07;99932.25;;;15.79;44.32
61055;BME280;46939;48.940;8.258;2022-11-20T00:51:36;99932.41;;;15.73;44.20
61055;BME280;46939;48.940;8.258;2022-11-20T00:54:04;99938.09;;;15.76;44.35
61055;BME280;46939;48.940;8.258;2022-11-20T00:56:32;99932.03;;;15.69;44.63
61055;BME280;46939;48.940;8.258;2022-11-20T00:59:01;99942.13;;;15.67;44.88
61055;BME280;46939;48.940;8.258;2022-11-20T01:01:32;99942.38;;;15.66;44.75
61055;BME280;46939;48.940;8.258;2022-11-20T01:04:00;99932.03;;;15.69;44.47
61055;BME280;46939;48.940;8.258;2022-11-20T01:06:30;99939.25;;;15.69;44.54
61055;BME280;46939;48.940;8.258;2022-11-20T01:09:00;99934.47;;;15.71;44.37
61055;BME280;46939;48.940;8.258;2022-11-20T01:11:30;99948.28;;;15.79;44.38
61055;BME280;46939;48.940;8.258;2022-11-20T01:14:00;99940.16;;;15.74;44.42
61055;BME280;46939;48.940;8.258;2022-11-20T01:16:32;99947.03;;;15.82;44.56
61055;BME280;46939;48.940;8.258;2022-11-20T01:19:05;99935.63;;;15.86;44.29
61055;BME280;46939;48.940;8.258;2022-11-20T01:21:35;99941.56;;;15.89;44.16
61055;BME280;46939;48.940;8.258;2022-11-20T01:24:05;99939.34;;;15.85;44.59
61055;BME280;46939;48.940;8.258;2022-11-20T01:26:36;99932.16;;;15.86;44.58
61055;BME280;46939;48.940;8.258;2022-11-20T01:29:06;99941.31;;;15.78;44.66
61055;BME280;46939;48.940;8.258;2022-11-20T01:31:37;99936.09;;;15.83;44.66
61055;BME280;46939;48.940;8.258;2022-11-20T01:34:08;99932.25;;;15.79;44.67
61055;BME280;46939;48.940;8.258;2022-11-20T01:36:37;99934.94;;;15.91;44.90
61055;BME280;46939;48.940;8.258;2022-11-20T01:39:09;99930.41;;;15.92;45.42
61055;BME280;46939;48.940;8.258;2022-11-20T01:41:39;99926.34;;;15.89;45.93
61055;BME280;46939;48.940;8.258;2022-11-20T01:44:22;99929.22;;;15.64;47.16
61055;BME280;46939;48.940;8.258;2022-11-20T01:46:56;99918.44;;;15.94;46.67
61055;BME280;46939;48.940;8.258;2022-11-20T01:49:31;99915.16;;;16.16;45.87
61055;BME280;46939;48.940;8.258;2022-11-20T01:52:05;99915.16;;;16.16;46.43
61055;BME280;46939;48.940;8.258;2022-11-20T01:54:38;99914.69;;;16.19;46.01
61055;BME280;46939;48.940;8.258;2022-11-20T01:57:09;99916.31;;;16.20;46.17
61055;BME280;46939;48.940;8.258;2022-11-20T01:59:41;99919.91;;;16.25;46.23
61055;BME280;46939;48.940;8.258;2022-11-20T02:02:15;99915.06;;;16.22;45.87
61055;BME280;46939;48.940;8.258;2022-11-20T02:04:44;99922.72;;;16.19;46.10
61055;BME280;46939;48.940;8.258;2022-11-20T02:07:13;99911.19;;;16.30;45.74
61055;BME280;46939;48.940;8.258;2022-11-20T02:09:42;99922.81;;;16.24;45.95
61055;BME280;46939;48.940;8.258;2022-11-20T02:12:10;99920.50;;;16.16;46.38
61055;BME280;46939;48.940;8.258;2022-11-20T02:14:58;99920.16;;;16.24;45.90
61055;BME280;46939;48.940;8.258;2022-11-20T02:17:27;99922.50;;;16.08;46.52
61055;BME280;46939;48.940;8.258;2022-11-20T02:19:56;99915.69;;;16.29;46.13
61055;BME280;46939;48.940;8.258;2022-11-20T02:22:28;99918.19;;;16.19;46.25
61055;BME280;46939;48.940;8.258;2022-11-20T02:25:01;99921.38;;;15.81;46.96
61055;BME280;46939;48.940;8.258;2022-11-20T02:27:30;99923.25;;;16.32;45.70
61055;BME280;46939;48.940;8.258;2022-11-20T02:30:01;99915.53;;;16.07;46.00
61055;BME280;46939;48.940;8.258;2022-11-20T02:32:32;99920.47;;;16.39;45.72
61055;BME280;46939;48.940;8.258;2022-11-20T02:35:06;99924.81;;;16.17;45.49
61055;BME280;46939;48.940;8.258;2022-11-20T02:37:36;99927.31;;;16.35;45.27
61055;BME280;46939;48.940;8.258;2022-11-20T02:40:09;99927.13;;;16.13;45.69
61055;BME280;46939;48.940;8.258;2022-11-20T02:42:37;99930.41;;;16.03;45.71
61055;BME280;46939;48.940;8.258;2022-11-20T02:45:07;99922.69;;;16.30;45.69
61055;BME280;46939;48.940;8.258;2022-11-20T02:47:36;99925.25;;;16.25;45.29
61055;BME280;46939;48.940;8.258;2022-11-20T02:50:05;99924.56;;;16.30;45.48
61055;BME280;46939;48.940;8.258;2022-11-20T02:52:34;99925.97;;;16.09;46.05
61055;BME280;46939;48.940;8.258;2022-11-20T02:55:02;99927.00;;;16.20;45.75
61055;BME280;46939;48.940;8.258;2022-11-20T02:57:34;99919.72;;;16.03;45.95
61055;BME280;46939;48.940;8.258;2022-11-20T03:00:03;99919.84;;;16.49;44.93
61055;BME280;46939;48.940;8.258;2022-11-20T03:02:33;99920.47;;;16.39;44.81
61055;BME280;46939;48.940;8.258;2022-11-20T03:05:01;99926.31;;;16.13;45.38
61055;BME280;46939;48.940;8.258;2022-11-20T03:07:30;99923.59;;;16.36;44.63
61055;BME280;46939;48.940;8.258;2022-11-20T03:09:58;99923.41;;;16.14;45.64
61055;BME280;46939;48.940;8.258;2022-11-20T03:12:26;99923.25;;;16.73;44.64
61055;BME280;46939;48.940;8.258;2022-11-20T03:14:57;99920.59;;;16.73;44.66
61055;BME280;46939;48.940;8.258;2022-11-20T03:17:26;99922.66;;;16.82;44.12
61055;BME280;46939;48.940;8.258;2022-11-20T03:19:54;99918.28;;;16.65;44.29
61055;BME280;46939;48.940;8.258;2022-11-20T03:22:23;99918.09;;;16.83;44.24
61055;BME280;46939;48.940;8.258;2022-11-20T03:24:51;99916.47;;;16.53;44.55
61055;BME280;46939;48.940;8.258;2022-11-20T03:27:20;99903.13;;;16.42;44.94
61055;BME280;46939;48.940;8.258;2022-11-20T03:29:48;99911.69;;;16.55;44.15
61055;BME280;46939;48.940;8.258;2022-11-20T03:32:19;99909.56;;;16.29;44.98
61055;BME280;46939;48.940;8.258;2022-11-20T03:34:47;99914.31;;;16.67;43.74
61055;BME280;46939;48.940;8.258;2022-11-20T03:37:15;99917.31;;;16.71;43.82
61055;BME280;46939;48.940;8.258;2022-11-20T03:39:44;99918.09;;;16.83;43.94
61055;BME280;46939;48.940;8.258;2022-11-20T03:42:12;99916.94;;;16.50;44.13
61055;BME280;46939;48.940;8.258;2022-11-20T03:44:53;99920.66;;;16.90;43.43
61055;BME280;46939;48.940;8.258;2022-11-20T03:47:24;99908.25;;;17.00;43.28
61055;BME280;46939;48.940;8.258;2022-11-20T03:49:52;99913.53;;;16.95;43.32
61055;BME280;46939;48.940;8.258;2022-11-20T03:52:20;99922.22;;;16.74;43.63
61055;BME280;46939;48.940;8.258;2022-11-20T03:54:49;99915.50;;;16.59;43.97
61055;BME280;46939;48.940;8.258;2022-11-20T03:57:17;99918.97;;;16.60;44.24
61055;BME280;46939;48.940;8.258;2022-11-20T03:59:45;99914.00;;;16.23;45.03
61055;BME280;46939;48.940;8.258;2022-11-20T04:02:14;99908.66;;;16.11;45.13
61055;BME280;46939;48.940;8.258;2022-11-20T04:04:45;99908.50;;;16.42;44.52
61055;BME280;46939;48.940;8.258;2022-11-20T04:07:13;99917.69;;;16.74;43.42
61055;BME280;46939;48.940;8.258;2022-11-20T04:09:41;99912.59;;;16.61;43.75
61055;BME280;46939;48.940;8.258;2022-11-20T04:12:10;99908.94;;;16.79;43.68
61055;BME280;46939;48.940;8.258;2022-11-20T04:14:38;99903.19;;;16.58;43.97
61055;BME280;46939;48.940;8.258;2022-11-20T04:17:06;99904.09;;;16.76;43.76
61055;BME280;46939;48.940;8.258;2022-11-20T04:19:35;99904.91;;;16.93;43.17
61055;BME280;46939;48.940;8.258;2022-11-20T04:22:06;99898.19;;;16.62;43.35
61055;BME280;46939;48.940;8.258;2022-11-20T04:24:34;99903.66;;;16.15;44.49
61055;BME280;46939;48.940;8.258;2022-11-20T04:27:03;99904.91;;;16.65;43.59
61055;BME280;46939;48.940;8.258;2022-11-20T04:29:32;99904.91;;;16.65;43.84
61055;BME280;46939;48.940;8.258;2022-11-20T04:32:00;99907.53;;;16.88;43.42
61055;BME280;46939;48.940;8.258;2022-11-20T04:34:28;99903.13;;;16.70;43.50
61055;BME280;46939;48.940;8.258;2022-11-20T04:36:57;99902.44;;;16.75;43.18
61055;BME280;46939;48.940;8.258;2022-11-20T04:39:28;99893.22;;;16.82;43.11
61055;BME280;46939;48.940;8.258;2022-11-20T04:41:56;99892.75;;;17.02;43.17
61055;BME280;46939;48.940;8.258;2022-11-20T04:44:37;99899.50;;;16.88;43.25
61055;BME280;46939;48.940;8.258;2022-11-20T04:47:05;99901.72;;;17.08;43.14
61055;BME280;46939;48.940;8.258;2022-11-20T04:49:33;99907.59;;;16.93;43.19
61055;BME280;46939;48.940;8.258;2022-11-20T04:52:02;99894.31;;;16.98;43.00
61055;BME280;46939;48.940;8.258;2022-11-20T04:54:33;99897.81;;;16.99;42.83
61055;BME280;46939;48.940;8.258;2022-11-20T04:57:02;99894.00;;;17.12;42.80
61055;BME280;46939;48.940;8.258;2022-11-20T04:59:30;99898.59;;;16.71;43.72
61055;BME280;46939;48.940;8.258;2022-11-20T05:01:58;99892.75;;;16.86;43.36
61055;BME280;46939;48.940;8.258;2022-11-20T05:04:27;99888.41;;;16.56;43.67
61055;BME280;46939;48.940;8.258;2022-11-20T05:06:55;99892.38;;;16.25;44.49
61055;BME280;46939;48.940;8.258;2022-11-20T05:09:23;99892.97;;;16.55;43.75
61055;BME280;46939;48.940;8.258;2022-11-20T05:11:54;99887.06;;;16.53;44.25
61055;BME280;46939;48.940;8.258;2022-11-20T05:14:23;99887.41;;;16.57;43.74
61055;BME280;46939;48.940;8.258;2022-11-20T05:16:51;99894.19;;;16.36;44.41
61055;BME280;46939;48.940;8.258;2022-11-20T05:19:19;99887.81;;;16.25;44.50
61055;BME280;46939;48.940;8.258;2022-11-20T05:21:48;99888.16;;;15.89;45.41
61055;BME280;46939;48.940;8.258;2022-11-20T05:24:16;99886.38;;;16.46;44.30
61055;BME280;46939;48.940;8.258;2022-11-20T05:26:44;99885.34;;;16.07;44.68
61055;BME280;46939;48.940;8.258;2022-11-20T05:29:15;99885.13;;;16.37;43.98
61055;BME280;46939;48.940;8.258;2022-11-20T05:31:43;99889.19;;;15.76;45.29
61055;BME280;46939;48.940;8.258;2022-11-20T05:34:12;99885.75;;;16.56;44.22
61055;BME280;46939;48.940;8.258;2022-11-20T05:36:40;99878.88;;;16.31;44.32
61055;BME280;46939;48.940;8.258;2022-11-20T05:39:08;99886.66;;;16.73;43.36
61055;BME280;46939;48.940;8.258;2022-11-20T05:41:37;99875.50;;;16.65;43.25
61055;BME280;46939;48.940;8.258;2022-11-20T05:44:05;99876.03;;;16.50;43.80
61055;BME280;46939;48.940;8.258;2022-11-20T05:46:36;99876.53;;;16.64;43.08
61055;BME280;46939;48.940;8.258;2022-11-20T05:49:04;99879.78;;;16.37;43.60
61055;BME280;46939;48.940;8.258;2022-11-20T05:51:33;99875.97;;;16.21;44.17
61055;BME280;46939;48.940;8.258;2022-11-20T05:54:01;99880.00;;;15.95;44.83
61055;BME280;46939;48.940;8.258;2022-11-20T05:56:29;99869.31;;;15.83;44.69
61055;BME280;46939;48.940;8.258;2022-11-20T05:58:58;99871.41;;;15.58;45.93
61055;BME280;46939;48.940;8.258;2022-11-20T06:01:26;99866.00;;;16.17;44.35
61055;BME280;46939;48.940;8.258;2022-11-20T06:03:57;99868.91;;;16.27;44.50
61055;BME280;46939;48.940;8.258;2022-11-20T06:06:25;99881.94;;;16.52;43.58
61055;BME280;46939;48.940;8.258;2022-11-20T06:08:54;99879.78;;;16.37;43.46
61055;BME280;46939;48.940;8.258;2022-11-20T06:11:24;99876.47;;;16.18;44.43
61055;BME280;46939;48.940;8.258;2022-11-20T06:13:53;99884.72;;;16.17;44.47
61055;BME280;46939;48.940;8.258;2022-11-20T06:16:21;99875.56;;;16.41;44.02
61055;BME280;46939;48.940;8.258;2022-11-20T06:18:49;99883.28;;;16.38;44.30
61055;BME280;46939;48.940;8.258;2022-11-20T06:21:21;99882.47;;;16.25;44.51
61055;BME280;46939;48.940;8.258;2022-11-20T06:23:51;99875.94;;;16.33;44.20
61055;BME280;46939;48.940;8.258;2022-11-20T06:26:22;99883.13;;;16.44;44.33
61055;BME280;46939;48.940;8.258;2022-11-20T06:28:51;99879.41;;;16.45;43.89
61055;BME280;46939;48.940;8.258;2022-11-20T06:31:23;99885.00;;;16.03;44.55
61055;BME280;46939;48.940;8.258;2022-11-20T06:33:52;99884.75;;;16.05;44.84
61055;BME280;46939;48.940;8.258;2022-11-20T06:36:23;99882.56;;;15.90;45.73
61055;BME280;46939;48.940;8.258;2022-11-20T06:38:51;99890.44;;;15.50;46.25
61055;BME280;46939;48.940;8.258;2022-11-20T06:41:21;99883.50;;;15.96;45.36
61055;BME280;46939;48.940;8.258;2022-11-20T06:43:51;99879.72;;;16.20;44.63
61055;BME280;46939;48.940;8.258;2022-11-20T06:46:20;99890.75;;;16.24;44.61
61055;BME280;46939;48.940;8.258;2022-11-20T06:48:49;99898.13;;;15.70;45.57
61055;BME280;46939;48.940;8.258;2022-11-20T06:51:17;99896.63;;;15.85;45.50
61055;BME280;46939;48.940;8.258;2022-11-20T06:53:49;99888.69;;;16.02;45.52
61055;BME280;46939;48.940;8.258;2022-11-20T06:56:17;99902.19;;;16.07;44.92
61055;BME280;46939;48.940;8.258;2022-11-20T06:58:46;99905.88;;;16.06;44.90
61055;BME280;46939;48.940;8.258;2022-11-20T07:01:15;99907.06;;;16.10;45.20
61055;BME280;46939;48.940;8.258;2022-11-20T07:03:43;99907.25;;;16.21;44.98
61055;BME280;46939;48.940;8.258;2022-11-20T07:06:12;99902.31;;;16.41;44.64
61055;BME280;46939;48.940;8.258;2022-11-20T07:08:40;99909.91;;;16.21;45.11
61055;BME280;46939;48.940;8.258;2022-11-20T07:11:13;99908.31;;;16.20;45.14
61055;BME280;46939;48.940;8.258;2022-11-20T07:13:42;99913.06;;;16.18;44.77
61055;BME280;46939;48.940;8.258;2022-11-20T07:16:10;99913.47;;;16.50;44.78
61055;BME280;46939;48.940;8.258;2022-11-20T07:18:38;99913.63;;;16.31;44.76
61055;BME280;46939;48.940;8.258;2022-11-20T07:21:08;99918.56;;;15.99;45.31
61055;BME280;46939;48.940;8.258;2022-11-20T07:23:37;99915.16;;;16.16;45.29
61055;BME280;46939;48.940;8.258;2022-11-20T07:26:07;99922.50;;;15.50;46.71
61055;BME280;46939;48.940;8.258;2022-11-20T07:28:38;99925.09;;;15.92;46.26
61055;BME280;46939;48.940;8.258;2022-11-20T07:31:06;99924.94;;;15.75;46.48
61055;BME280;46939;48.940;8.258;2022-11-20T07:33:35;99931.69;;;15.66;46.71
61055;BME280;46939;48.940;8.258;2022-11-20T07:36:04;99925.97;;;16.09;45.78
61055;BME280;46939;48.940;8.258;2022-11-20T07:38:32;99925.88;;;15.92;46.05
61055;BME280;46939;48.940;8.258;2022-11-20T07:41:01;99930.72;;;16.30;45.92
61055;BME280;46939;48.940;8.258;2022-11-20T07:43:29;99919.78;;;16.32;45.37
61055;BME280;46939;48.940;8.258;2022-11-20T07:46:00;99933.63;;;15.58;46.88
61055;BME280;46939;48.940;8.258;2022-11-20T07:48:29;99934.13;;;15.91;46.95
61055;BME280;46939;48.940;8.258;2022-11-20T07:50:57;99938.19;;;15.93;46.70
61055;BME280;46939;48.940;8.258;2022-11-20T07:53:25;99941.31;;;16.02;46.52
61055;BME280;46939;48.940;8.258;2022-11-20T07:55:54;99925.41;;;16.07;46.84
61055;BME280;46939;48.940;8.258;2022-11-20T07:58:22;99940.03;;;16.04;46.74
61055;BME280;46939;48.940;8.258;2022-11-20T08:00:50;99938.34;;;15.45;48.46
61055;BME280;46939;48.940;8.258;2022-11-20T08:03:21;99941.91;;;15.92;48.07
61055;BME280;46939;48.940;8.258;2022-11-20T08:05:50;99939.31;;;16.21;47.73
61055;BME280;46939;48.940;8.258;2022-11-20T08:08:18;99940.38;;;16.20;47.07
61055;BME280;46939;48.940;8.258;2022-11-20T08:10:48;99943.16;;;16.25;47.43
61055;BME280;46939;48.940;8.258;2022-11-20T08:13:16;99946.50;;;16.32;47.08
61055;BME280;46939;48.940;8.258;2022-11-20T08:15:57;99951.09;;;15.84;48.09
61055;BME280;46939;48.940;8.258;2022-11-20T08:18:28;99959.81;;;16.03;47.45
61055;BME280;46939;48.940;8.258;2022-11-20T08:20:56;99958.06;;;15.74;48.65
61055;BME280;46939;48.940;8.258;2022-11-20T08:23:24;99962.47;;;16.15;47.38
61055;BME280;46939;48.940;8.258;2022-11-20T08:25:53;99965.00;;;16.10;47.82
61055;BME280;46939;48.940;8.258;2022-11-20T08:28:21;99961.84;;;16.25;46.72
61055;BME280;46939;48.940;8.258;2022-11-20T08:30:49;99963.47;;;16.38;46.88
61055;BME280;46939;48.940;8.258;2022-11-20T08:33:18;99974.44;;;15.89;47.80
61055;BME280;46939;48.940;8.258;2022-11-20T08:35:49;99971.03;;;16.17;47.26
61055;BME280;46939;48.940;8.258;2022-11-20T08:38:17;99973.22;;;16.44;46.88
61055;BME280;46939;48.940;8.258;2022-11-20T08:40:46;99972.88;;;16.28;47.37
61055;BME280;46939;48.940;8.258;2022-11-20T08:43:34;99974.78;;;16.16;47.54
61055;BME280;46939;48.940;8.258;2022-11-20T08:46:02;99980.47;;;15.73;48.40
61055;BME280;46939;48.940;8.258;2022-11-20T08:48:31;99982.09;;;15.85;48.15
61055;BME280;46939;48.940;8.258;2022-11-20T08:51:02;99979.88;;;15.71;48.54
61055;BME280;46939;48.940;8.258;2022-11-20T08:53:30;99983.53;;;15.46;48.99
61055;BME280;46939;48.940;8.258;2022-11-20T08:55:59;99993.47;;;16.04;48.21
61055;BME280;46939;48.940;8.258;2022-11-20T08:58:27;99986.06;;;16.18;47.51
61055;BME280;46939;48.940;8.258;2022-11-20T09:00:56;99991.63;;;16.17;47.36
61055;BME280;46939;48.940;8.258;2022-11-20T09:03:24;99990.56;;;15.94;47.89
61055;BME280;46939;48.940;8.258;2022-11-20T09:05:57;99983.75;;;15.45;49.23
61055;BME280;46939;48.940;8.258;2022-11-20T09:08:28;99994.88;;;16.19;48.00
61055;BME280;46939;48.940;8.258;2022-11-20T09:10:57;99990.88;;;16.45;47.80
61055;BME280;46939;48.940;8.258;2022-11-20T09:13:27;100002.06;;;16.06;48.26
61055;BME280;46939;48.940;8.258;2022-11-20T09:15:56;100001.25;;;16.18;48.32
61055;BME280;46939;48.940;8.258;2022-11-20T09:18:26;100008.69;;;15.80;48.82
61055;BME280;46939;48.940;8.258;2022-11-20T09:20:57;100011.97;;;15.52;50.25
61055;BME280;46939;48.940;8.258;2022-11-20T09:23:31;100012.41;;;15.91;49.18
61055;BME280;46939;48.940;8.258;2022-11-20T09:26:02;100017.41;;;16.23;48.61
61055;BME280;46939;48.940;8.258;2022-11-20T09:28:31;100011.22;;;16.46;47.67
61055;BME280;46939;48.940;8.258;2022-11-20T09:31:00;100017.09;;;16.83;46.86
61055;BME280;46939;48.940;8.258;2022-11-20T09:33:28;100010.50;;;16.62;47.55
61055;BME280;46939;48.940;8.258;2022-11-20T09:35:57;100025.53;;;16.28;48.15
61055;BME280;46939;48.940;8.258;2022-11-20T09:38:28;100023.91;;;16.27;48.09
61055;BME280;46939;48.940;8.258;2022-11-20T09:40:58;100017.75;;;16.38;48.49
61055;BME280;46939;48.940;8.258;2022-11-20T09:43:34;100006.47;;;16.36;48.74
61055;BME280;46939;48.940;8.258;2022-11-20T09:46:10;100023.31;;;16.01;48.73
61055;BME280;46939;48.940;8.258;2022-11-20T09:48:48;100022.28;;;16.49;47.98
61055;BME280;46939;48.940;8.258;2022-11-20T09:51:32;100025.88;;;16.43;48.13
61055;BME280;46939;48.940;8.258;2022-11-20T09:54:15;100019.34;;;16.74;47.82
61055;BME280;46939;48.940;8.258;2022-11-20T09:56:47;100022.28;;;17.01;46.50
61055;BME280;46939;48.940;8.258;2022-11-20T09:59:32;100023.47;;;16.94;47.08
61055;BME280;46939;48.940;8.258;2022-11-20T10:02:08;100024.03;;;16.20;48.29
61055;BME280;46939;48.940;8.258;2022-11-20T10:04:45;100017.22;;;16.88;47.01
61055;BME280;46939;48.940;8.258;2022-11-20T10:07:19;100026.63;;;16.67;47.37
61055;BME280;46939;48.940;8.258;2022-11-20T10:09:55;100019.66;;;16.66;47.45
61055;BME280;46939;48.940;8.258;2022-11-20T10:12:29;100023.81;;;16.33;48.38
61055;BME280;46939;48.940;8.258;2022-11-20T10:15:12;100018.50;;;16.86;47.04
61055;BME280;46939;48.940;8.258;2022-11-20T10:20:49;100007.75;;;17.26;46.66
61055;BME280;46939;48.940;8.258;2022-11-20T10:23:37;100013.41;;;16.49;47.84
61055;BME280;46939;48.940;8.258;2022-11-20T10:26:22;100008.22;;;16.42;47.99
61055;BME280;46939;48.940;8.258;2022-11-20T10:29:08;100003.81;;;16.24;49.25
61055;BME280;46939;48.940;8.258;2022-11-20T10:31:40;100003.88;;;17.05;47.43
61055;BME280;46939;48.940;8.258;2022-11-20T10:34:18;99997.03;;;16.97;48.07
61055;BME280;46939;48.940;8.258;2022-11-20T10:36:54;99995.59;;;17.52;46.95
61055;BME280;46939;48.940;8.258;2022-11-20T10:39:29;99988.66;;;17.85;45.61
61055;BME280;46939;48.940;8.258;2022-11-20T10:42:08;99989.59;;;17.45;45.91
61055;BME280;46939;48.940;8.258;2022-11-20T10:44:39;99986.44;;;16.62;48.03
61055;BME280;46939;48.940;8.258;2022-11-20T10:47:30;99978.03;;;16.82;46.84
61055;BME280;46939;48.940;8.258;2022-11-20T10:50:03;99981.88;;;17.48;46.26
61055;BME280;46939;48.940;8.258;2022-11-20T10:52:36;99972.31;;;17.69;45.22
61055;BME280;46939;48.940;8.258;2022-11-20T10:55:21;99971.88;;;17.27;45.54
61055;BME280;46939;48.940;8.258;2022-11-20T10:58:02;99969.25;;;17.61;45.02
61055;BME280;46939;48.940;8.258;2022-11-20T11:00:32;99962.56;;;17.46;44.22
61055;BME280;46939;48.940;8.258;2022-11-20T11:03:01;99965.19;;;17.75;43.76
61055;BME280;46939;48.940;8.258;2022-11-20T11:05:36;99969.50;;;17.76;43.38
61055;BME280;46939;48.940;8.258;2022-11-20T11:08:12;99965.84;;;17.82;43.46
61055;BME280;46939;48.940;8.258;2022-11-20T11:10:46;99960.56;;;17.53;43.34
61055;BME280;46939;48.940;8.258;2022-11-20T11:13:23;99960.88;;;17.91;42.81
61055;BME280;46939;48.940;8.258;2022-11-20T11:16:04;99949.53;;;18.22;42.08
61055;BME280;46939;48.940;8.258;2022-11-20T11:18:34;99956.34;;;17.91;41.65
61055;BME280;46939;48.940;8.258;2022-11-20T11:21:04;99938.50;;;18.19;41.97
61055;BME280;46939;48.940;8.258;2022-11-20T11:23:35;99927.38;;;18.32;41.33
61055;BME280;46939;48.940;8.258;2022-11-20T11:26:06;99926.88;;;18.13;41.35
61055;BME280;46939;48.940;8.258;2022-11-20T11:28:38;99924.50;;;18.17;40.79
61055;BME280;46939;48.940;8.258;2022-11-20T11:31:06;99919.47;;;18.20;41.14
61055;BME280;46939;48.940;8.258;2022-11-20T11:33:34;99916.03;;;18.25;40.88
61055;BME280;46939;48.940;8.258;2022-11-20T11:36:16;99921.13;;;18.04;41.49
61055;BME280;46939;48.940;8.258;2022-11-20T11:38:50;99914.53;;;17.56;41.65
61055;BME280;46939;48.940;8.258;2022-11-20T11:41:21;99909.75;;;17.58;41.04
61055;BME280;46939;48.940;8.258;2022-11-20T11:43:54;99904.13;;;16.93;41.81
61055;BME280;46939;48.940;8.258;2022-11-20T11:46:37;99900.25;;;17.00;41.57
61055;BME280;46939;48.940;8.258;2022-11-20T11:49:17;99898.63;;;17.33;40.30
61055;BME280;46939;48.940;8.258;2022-11-20T11:51:58;99886.66;;;18.13;39.40
61055;BME280;46939;48.940;8.258;2022-11-20T11:54:32;99890.56;;;18.22;39.11
61055;BME280;46939;48.940;8.258;2022-11-20T11:57:11;99894.66;;;18.08;39.32
61055;BME280;46939;48.940;8.258;2022-11-20T11:59:54;99883.53;;;18.92;38.00
61055;BME280;46939;48.940;8.258;2022-11-20T12:02:36;99886.28;;;19.30;37.19
61055;BME280;46939;48.940;8.258;2022-11-20T12:05:16;99883.88;;;19.33;36.61
61055;BME280;46939;48.940;8.258;2022-11-20T12:07:47;99886.19;;;19.57;36.62
61055;BME280;46939;48.940;8.258;2022-11-20T12:10:21;99884.97;;;18.73;37.52
61055;BME280;46939;48.940;8.258;2022-11-20T12:12:53;99882.13;;;18.14;38.09
61055;BME280;46939;48.940;8.258;2022-11-20T12:15:30;99888.38;;;18.41;37.18
61055;BME280;46939;48.940;8.258;2022-11-20T12:17:58;99899.03;;;18.14;36.66
61055;BME280;46939;48.940;8.258;2022-11-20T12:20:32;99887.16;;;18.54;35.69
61055;BME280;46939;48.940;8.258;2022-11-20T12:23:08;99878.81;;;19.05;35.83
61055;BME280;46939;48.940;8.258;2022-11-20T12:25:39;99881.97;;;18.47;36.10
61055;BME280;46939;48.940;8.258;2022-11-20T12:28:31;99895.44;;;18.52;36.00
61055;BME280;46939;48.940;8.258;2022-11-20T12:31:31;99898.59;;;17.67;36.62
61055;BME280;46939;48.940;8.258;2022-11-20T12:34:13;99888.22;;;17.70;37.15
61055;BME280;46939;48.940;8.258;2022-11-20T12:36:53;99883.78;;;17.42;37.53
61055;BME280;46939;48.940;8.258;2022-11-20T12:39:34;99883.31;;;18.01;35.74
61055;BME280;46939;48.940;8.258;2022-11-20T12:42:17;99874.66;;;18.16;36.37
61055;BME280;46939;48.940;8.258;2022-11-20T12:45:24;99873.88;;;17.76;35.80
61055;BME280;46939;48.940;8.258;2022-11-20T12:51:12;99873.66;;;17.27;36.53
61055;BME280;46939;48.940;8.258;2022-11-20T12:53:50;99870.28;;;18.10;35.70
61055;BME280;46939;48.940;8.258;2022-11-20T12:56:29;99867.09;;;17.74;35.98
61055;BME280;46939;48.940;8.258;2022-11-20T12:59:12;99872.28;;;16.51;36.88
61055;BME280;46939;48.940;8.258;2022-11-20T13:01:49;99873.38;;;16.67;37.15
61055;BME280;46939;48.940;8.258;2022-11-20T13:04:37;99870.06;;;17.22;36.07
61055;BME280;46939;48.940;8.258;2022-11-20T13:07:13;99860.59;;;16.69;36.37
61055;BME280;46939;48.940;8.258;2022-11-20T13:09:46;99862.25;;;16.87;36.79
61055;BME280;46939;48.940;8.258;2022-11-20T13:12:18;99854.88;;;16.77;36.32
61055;BME280;46939;48.940;8.258;2022-11-20T13:14:55;99847.84;;;17.21;36.24
61055;BME280;46939;48.940;8.258;2022-11-20T13:17:32;99839.22;;;18.14;34.13
61055;BME280;46939;48.940;8.258;2022-11-20T13:20:06;99850.28;;;17.23;34.40
61055;BME280;46939;48.940;8.258;2022-11-20T13:22:46;99854.34;;;17.25;34.67
61055;BME280;46939;48.940;8.258;2022-11-20T13:25:25;99854.09;;;17.10;34.56
61055;BME280;46939;48.940;8.258;2022-11-20T13:27:55;99845.81;;;16.78;35.13
61055;BME280;46939;48.940;8.258;2022-11-20T13:30:26;99852.22;;;17.44;34.57